Главная страница
METAR-TAF:

METAR-TAF

Аэропорты :

Кольцово

Екатеринбург, Россия

широта: 56-50N, долгота: 060-38E, высота над уровнем моря: 237 м

Текущие метеонаблюдения

Эта сводка был подготовлена 28 минут назад, в 10:00 UTC
Ветер 6 Узел от восточный, изменяющийся между северо-восточный и восточно-юго-восточный
Температура 25°C
Влажность 44%
Давление 1016 hPa
Видимость 10 км и более
Нет облачности ниже 1500 м, и нет кучево-дождевой облачности

METAR: USSS 161000Z 08003MPS 040V120 CAVOK 25/12 Q1016 R08R/010060 R08L/010060 NOSIG RMK QFE742/0989

Время: 15:28 (10:28 UTC)

Прогноз

Эта сводка был подготовлена 2 часа и 35 минут назад, в 07:53 UTC
Прогноз действительный с 16-го 09 UTC до 17-го 09 UTC
Ветер 6 Узел от восточно-юго-восточный с порывами до 17 Узел
Видимость 10 км и более
Отдельные облака на высоте 4000 фута
изменения
С 16-го 17 UTC до 16-го 19 UTC
Ветер 6 Узел от восточный

TAF: USSS 160753Z 1609/1709 12003G09MPS 9999 SCT040 BECMG 1617/1619 09003MPS

Метеонаблюдения и прогнозы для более 4000 аэропортов (сводки METAR и TAF).

Имеющиеся станции представлены на карте желтыми и красными точками.

Чтобы увидеть название станции, наведите на нее мышь.

Затем щелкните, чтобы увидеть метеонаблюдения и метеопрогнозы.

Управление картой: чтобы увеличить масштаб, щелкните зеленые кнопки с черным крестиком; чтобы уменьшить масштаб, щелкните зеленую кнопку с тире; для просмотра соседних карт щелкайте зеленые стрелки.


METAR-TAF: